Terminal Aerodrome Forecast
Issued by NWS

Home | Current Version | Previous Version | Text Only | Print | Product List | Glossary On
Versions: 1 2 3 4 5 6 7 8 9 10 11 12 13 14 15
000
FTUS43 KMQT 240700 AAA
TAFIWD
TAF AMD
KIWD 240752Z 2408/2506 16009KT P6SM -RA BKN035
     FM241300 14012KT P6SM -RA OVC030
     FM241800 13012G19KT 5SM -RASN BR OVC020
     FM242300 12013KT 3SM -SN OVC012
      AMD LTD TO CLD VIS AND WIND=

USA.gov is the U.S. government's official web portal to all federal, state and local government web resources and services.